createdAt,value
2022-12-24T00:01:06.513Z,94184.16
2022-12-24T00:03:34.138Z,94179.91
2022-12-24T00:06:17.396Z,94202.66
2022-12-24T00:08:44.260Z,94201.34
2022-12-24T00:11:11.197Z,94211.63
2022-12-24T00:13:38.015Z,94217.16
2022-12-24T00:16:05.888Z,94203.88
2022-12-24T00:18:32.685Z,94220.44
2022-12-24T00:20:59.413Z,94216.13
2022-12-24T00:23:26.175Z,94216.28
2022-12-24T00:25:52.922Z,94237.69
2022-12-24T00:28:19.992Z,94240.25
2022-12-24T00:30:46.736Z,94233.97
2022-12-24T00:33:13.520Z,94251.63
2022-12-24T00:35:41.221Z,94230.97
2022-12-24T00:38:08.934Z,94251.22
2022-12-24T00:40:36.239Z,94248.38
2022-12-24T00:43:03.101Z,94237.69
2022-12-24T00:45:29.857Z,94235.41
2022-12-24T00:47:56.623Z,94226.84
2022-12-24T00:50:23.496Z,94236.78
2022-12-24T00:52:50.285Z,94251.94
2022-12-24T00:55:17.043Z,94253.34
2022-12-24T00:57:43.797Z,94234.81
2022-12-24T01:00:10.963Z,94267.47
2022-12-24T01:02:38.009Z,94251.50
2022-12-24T01:05:11.771Z,94250.34
2022-12-24T01:07:44.875Z,94259.09
2022-12-24T01:10:16.395Z,94267.09
2022-12-24T01:12:44.170Z,94246.88
2022-12-24T01:15:13.538Z,94274.69
2022-12-24T01:17:40.687Z,94265.31
2022-12-24T01:20:13.662Z,94276.41
2022-12-24T01:22:40.437Z,94297.38
2022-12-24T01:25:07.744Z,94295.63
2022-12-24T01:27:34.480Z,94293.59
2022-12-24T01:30:01.343Z,94296.25
2022-12-24T01:32:28.105Z,94308.50
2022-12-24T01:34:54.877Z,94315.25
2022-12-24T01:37:21.629Z,94316.50
2022-12-24T01:39:48.339Z,94300.81
2022-12-24T01:42:42.835Z,94321.03
2022-12-24T01:45:36.996Z,94315.06
2022-12-24T01:48:05.085Z,94313.16
2022-12-24T01:50:31.924Z,94320.84
2022-12-24T01:52:58.909Z,94319.19
2022-12-24T01:55:26.519Z,94304.53
2022-12-24T01:57:58.684Z,94289.84
2022-12-24T02:00:25.771Z,94292.31
2022-12-24T02:02:54.174Z,94318.94
2022-12-24T02:05:32.459Z,94309.09
2022-12-24T02:08:03.103Z,94316.78
2022-12-24T02:10:29.901Z,94301.19
2022-12-24T02:12:58.426Z,94329.81
2022-12-24T02:15:25.286Z,94328.03
2022-12-24T02:18:34.649Z,94338.28
2022-12-24T02:21:45.417Z,94347.75
2022-12-24T02:24:33.142Z,94358.19
2022-12-24T02:27:27.850Z,94358.19
2022-12-24T02:30:15.385Z,94351.34
2022-12-24T02:33:05.365Z,94353.28
2022-12-24T02:35:47.084Z,94352.28
2022-12-24T02:38:16.735Z,94348.75
2022-12-24T02:40:54.155Z,94357.25
2022-12-24T02:43:27.803Z,94333.28
2022-12-24T02:46:00.271Z,94352.06
2022-12-24T02:48:29.737Z,94356.59
2022-12-24T02:51:09.718Z,94352.19
2022-12-24T02:53:38.354Z,94350.53
2022-12-24T02:56:41.257Z,94365.78
2022-12-24T02:59:35.806Z,94393.09
2022-12-24T03:02:43.815Z,94372.00
2022-12-24T03:05:59.890Z,94404.34
2022-12-24T03:09:02.278Z,94406.25
2022-12-24T03:11:29.346Z,94381.06
2022-12-24T03:13:59.219Z,94396.69
2022-12-24T03:16:28.230Z,94395.59
2022-12-24T03:18:56.924Z,94397.38
2022-12-24T03:21:31.970Z,94403.09
2022-12-24T03:23:59.199Z,94399.81
2022-12-24T03:26:29.460Z,94397.50
2022-12-24T03:28:56.224Z,94403.53
2022-12-24T03:31:23.169Z,94408.47
2022-12-24T03:33:50.446Z,94426.16
2022-12-24T03:36:17.293Z,94433.69
2022-12-24T03:38:44.047Z,94439.19
2022-12-24T03:41:10.926Z,94427.66
2022-12-24T03:43:37.695Z,94423.00
2022-12-24T03:46:08.530Z,94418.06
2022-12-24T03:48:36.362Z,94425.34
2022-12-24T03:51:04.369Z,94418.06
2022-12-24T03:53:31.692Z,94430.81
2022-12-24T03:55:59.075Z,94426.16
2022-12-24T03:58:25.909Z,94441.09
2022-12-24T04:00:54.179Z,94420.81
2022-12-24T04:03:21.247Z,94433.41
2022-12-24T04:05:48.078Z,94424.78
2022-12-24T04:08:14.822Z,94430.13
2022-12-24T04:10:41.563Z,94433.16
2022-12-24T04:13:08.312Z,94436.44
2022-12-24T04:15:35.055Z,94431.91
2022-12-24T04:18:01.822Z,94412.31
2022-12-24T04:20:28.557Z,94410.78
2022-12-24T04:22:55.291Z,94411.78
2022-12-24T04:25:22.108Z,94429.44
2022-12-24T04:27:48.933Z,94406.56
2022-12-24T04:30:15.740Z,94409.56
2022-12-24T04:32:42.623Z,94421.63
2022-12-24T04:35:09.799Z,94419.72
2022-12-24T04:37:36.601Z,94409.56
2022-12-24T04:40:03.867Z,94424.94
2022-12-24T04:42:30.589Z,94426.56
2022-12-24T04:44:57.388Z,94418.59
2022-12-24T04:47:24.193Z,94422.44
2022-12-24T04:49:50.940Z,94424.94
2022-12-24T04:52:17.668Z,94437.81
2022-12-24T04:54:44.405Z,94447.69
2022-12-24T04:57:11.168Z,94445.50
2022-12-24T04:59:37.971Z,94453.16
2022-12-24T05:02:04.873Z,94460.03
2022-12-24T05:04:32.182Z,94456.84
2022-12-24T05:06:58.946Z,94452.06
2022-12-24T05:09:25.758Z,94456.03
2022-12-24T05:11:52.713Z,94462.19
2022-12-24T05:14:19.444Z,94469.88
2022-12-24T05:16:46.228Z,94475.88
2022-12-24T05:19:13.963Z,94456.72
2022-12-24T05:21:40.760Z,94454.78
2022-12-24T05:24:26.276Z,94463.72
2022-12-24T05:26:56.732Z,94476.44
2022-12-24T05:29:24.030Z,94471.25
2022-12-24T05:31:51.142Z,94461.38
2022-12-24T05:34:18.009Z,94466.59
2022-12-24T05:36:45.596Z,94478.38
2022-12-24T05:39:17.935Z,94475.75
2022-12-24T05:41:46.245Z,94487.41
2022-12-24T05:44:13.644Z,94489.75
2022-12-24T05:46:40.485Z,94477.81
2022-12-24T05:49:07.533Z,94477.00
2022-12-24T05:51:34.376Z,94467.94
2022-12-24T05:54:01.147Z,94470.81
2022-12-24T05:56:27.922Z,94477.00
2022-12-24T05:58:54.989Z,94475.63
2022-12-24T06:01:23.370Z,94494.00
2022-12-24T06:03:51.977Z,94492.06
2022-12-24T06:06:23.310Z,94493.59
2022-12-24T06:08:51.853Z,94510.44
2022-12-24T06:11:23.802Z,94512.13
2022-12-24T06:13:50.984Z,94509.50
2022-12-24T06:16:20.597Z,94503.31
2022-12-24T06:18:47.824Z,94500.03
2022-12-24T06:21:15.579Z,94514.31
2022-12-24T06:23:44.605Z,94504.56
2022-12-24T06:26:19.429Z,94518.00
2022-12-24T06:28:46.994Z,94496.47
2022-12-24T06:31:17.314Z,94507.03
2022-12-24T06:33:44.575Z,94490.44
2022-12-24T06:36:18.165Z,94507.72
2022-12-24T06:38:46.801Z,94471.91
2022-12-24T06:41:14.652Z,94498.66
2022-12-24T06:43:49.382Z,94513.88
2022-12-24T06:46:20.565Z,94531.84
2022-12-24T06:48:48.174Z,94516.19
2022-12-24T06:51:17.094Z,94518.13
2022-12-24T06:53:43.837Z,94517.56
2022-12-24T06:56:13.456Z,94505.53
2022-12-24T06:58:41.422Z,94508.00
2022-12-24T07:01:14.184Z,94516.91
2022-12-24T07:03:41.650Z,94502.50
2022-12-24T07:06:20.004Z,94524.34
2022-12-24T07:08:47.053Z,94521.03
2022-12-24T07:11:13.900Z,94528.56
2022-12-24T07:13:40.740Z,94532.16
2022-12-24T07:16:07.875Z,94532.66
2022-12-24T07:18:34.758Z,94529.13
2022-12-24T07:21:04.804Z,94521.72
2022-12-24T07:23:31.798Z,94522.25
2022-12-24T07:26:06.432Z,94523.09
2022-12-24T07:28:33.405Z,94530.50
2022-12-24T07:31:00.486Z,94529.56
2022-12-24T07:33:27.471Z,94540.50
2022-12-24T07:36:03.591Z,94538.44
2022-12-24T07:38:31.099Z,94542.72
2022-12-24T07:40:58.615Z,94545.31
2022-12-24T07:43:26.951Z,94550.78
2022-12-24T07:45:57.876Z,94542.81
2022-12-24T07:48:26.653Z,94548.75
2022-12-24T07:50:53.512Z,94530.75
2022-12-24T07:53:20.503Z,94550.38
2022-12-24T07:55:47.252Z,94553.81
2022-12-24T07:58:13.980Z,94550.25
2022-12-24T08:00:41.013Z,94569.19
2022-12-24T08:03:07.871Z,94563.94
2022-12-24T08:05:36.462Z,94583.59
2022-12-24T08:08:03.691Z,94587.16
2022-12-24T08:10:30.602Z,94594.16
2022-12-24T08:12:57.329Z,94593.06
2022-12-24T08:15:24.119Z,94609.78
2022-12-24T08:17:51.158Z,94611.44
2022-12-24T08:20:17.912Z,94596.63
2022-12-24T08:22:44.633Z,94615.56
2022-12-24T08:25:11.381Z,94605.44
2022-12-24T08:27:38.827Z,94619.84
2022-12-24T08:30:06.974Z,94622.72
2022-12-24T08:32:33.965Z,94611.47
2022-12-24T08:35:00.718Z,94621.91
2022-12-24T08:37:27.508Z,94630.97
2022-12-24T08:39:54.221Z,94625.91
2022-12-24T08:42:21.017Z,94631.50
2022-12-24T08:44:47.830Z,94640.31
2022-12-24T08:47:14.633Z,94638.09
2022-12-24T08:49:41.459Z,94647.72
2022-12-24T08:52:08.255Z,94645.81
2022-12-24T08:54:35.008Z,94649.09
2022-12-24T08:57:01.937Z,94671.91
2022-12-24T08:59:28.676Z,94682.47
2022-12-24T09:01:55.585Z,94681.22
2022-12-24T09:04:22.503Z,94684.09
2022-12-24T09:06:49.304Z,94680.78
2022-12-24T09:09:16.081Z,94671.59
2022-12-24T09:11:42.932Z,94668.06
2022-12-24T09:14:09.689Z,94661.44
2022-12-24T09:16:36.595Z,94646.06
2022-12-24T09:19:03.766Z,94645.47
2022-12-24T09:21:31.531Z,94652.09
2022-12-24T09:23:58.267Z,94652.91
2022-12-24T09:26:27.633Z,94664.72
2022-12-24T09:28:54.464Z,94646.31
2022-12-24T09:31:22.179Z,94672.53
2022-12-24T09:33:50.925Z,94667.16
2022-12-24T09:36:19.302Z,94669.63
2022-12-24T09:38:46.842Z,94670.44
2022-12-24T09:41:32.147Z,94663.81
2022-12-24T09:44:24.209Z,94636.31
2022-12-24T09:46:53.905Z,94667.41
2022-12-24T09:49:25.954Z,94657.38
2022-12-24T09:52:06.952Z,94672.06
2022-12-24T09:54:47.746Z,94668.72
2022-12-24T09:57:31.830Z,94659.69
2022-12-24T09:59:58.850Z,94648.41
2022-12-24T10:02:25.808Z,94659.78
2022-12-24T10:04:52.731Z,94657.63
2022-12-24T10:07:37.630Z,94672.13
2022-12-24T10:10:28.315Z,94675.13
2022-12-24T10:13:43.976Z,94663.50
2022-12-24T10:16:36.601Z,94680.34
2022-12-24T10:19:12.381Z,94675.78
2022-12-24T10:21:48.184Z,94677.84
2022-12-24T10:24:34.754Z,94676.13
2022-12-24T10:27:10.271Z,94689.44
2022-12-24T10:29:43.177Z,94673.13
2022-12-24T10:32:09.835Z,94688.59
2022-12-24T10:34:42.826Z,94667.84
2022-12-24T10:37:23.741Z,94665.44
2022-12-24T10:39:51.320Z,94668.06
2022-12-24T10:42:19.536Z,94684.81
2022-12-24T10:44:58.093Z,94616.09
2022-12-24T10:47:25.741Z,94683.22
2022-12-24T10:50:10.396Z,94685.41
2022-12-24T10:52:40.664Z,94629.28
2022-12-24T10:55:11.323Z,94689.22
2022-12-24T10:57:39.631Z,94681.34
2022-12-24T11:00:28.488Z,94682.69
2022-12-24T11:03:12.855Z,94675.34
2022-12-24T11:05:40.891Z,94684.66
2022-12-24T11:08:20.436Z,94681.25
2022-12-24T11:10:59.851Z,94684.72
2022-12-24T11:13:38.459Z,94671.09
2022-12-24T11:16:07.560Z,94679.50
2022-12-24T11:18:50.834Z,94669.66
2022-12-24T11:21:27.521Z,94671.84
2022-12-24T11:24:17.669Z,94671.63
2022-12-24T11:26:45.625Z,94677.88
2022-12-24T11:29:27.825Z,94684.97
2022-12-24T11:32:18.940Z,94675.25
2022-12-24T11:34:45.770Z,94664.41
2022-12-24T11:37:25.240Z,94662.31
2022-12-24T11:39:56.058Z,94675.47
2022-12-24T11:42:34.780Z,94668.44
2022-12-24T11:45:06.343Z,94669.25
2022-12-24T11:47:40.788Z,94667.78
2022-12-24T11:50:32.091Z,94659.72
2022-12-24T11:53:21.068Z,94662.34
2022-12-24T11:55:51.185Z,94665.34
2022-12-24T11:58:44.085Z,94675.84
2022-12-24T12:01:25.546Z,94664.97
2022-12-24T12:04:01.158Z,94669.13
2022-12-24T12:06:42.593Z,94674.00
2022-12-24T12:09:32.674Z,94669.25
2022-12-24T12:12:09.870Z,94656.81
2022-12-24T12:14:52.818Z,94646.81
2022-12-24T12:17:52.229Z,94656.97
2022-12-24T12:20:48.491Z,94663.69
2022-12-24T12:23:29.055Z,94665.50
2022-12-24T12:26:00.900Z,94666.13
2022-12-24T12:29:18.602Z,94660.72
2022-12-24T12:31:55.594Z,94649.72
2022-12-24T12:34:37.260Z,94663.69
2022-12-24T12:37:14.929Z,94646.78
2022-12-24T12:39:42.642Z,94665.19
2022-12-24T12:42:33.156Z,94662.88
2022-12-24T12:45:23.737Z,94665.22
2022-12-24T12:48:15.223Z,94668.34
2022-12-24T12:51:00.950Z,94664.38
2022-12-24T12:53:54.303Z,94670.44
2022-12-24T12:56:39.922Z,94666.22
2022-12-24T12:59:36.482Z,94664.84
2022-12-24T13:02:51.595Z,94668.34
2022-12-24T13:05:49.514Z,94663.25
2022-12-24T13:08:31.058Z,94653.41
2022-12-24T13:11:17.078Z,94664.56
2022-12-24T13:13:55.791Z,94667.84
2022-12-24T13:16:55.996Z,94662.94
2022-12-24T13:20:11.551Z,94663.59
2022-12-24T13:22:38.544Z,94674.41
2022-12-24T13:25:06.094Z,94658.31
2022-12-24T13:27:35.341Z,94647.13
2022-12-24T13:30:34.927Z,94657.19
2022-12-24T13:33:01.805Z,94651.41
2022-12-24T13:35:37.621Z,94637.25
2022-12-24T13:38:31.430Z,94651.56
2022-12-24T13:41:40.141Z,94652.38
2022-12-24T13:44:11.090Z,94651.41
2022-12-24T13:47:18.710Z,94667.16
2022-12-24T13:49:53.649Z,94655.00
2022-12-24T13:52:27.836Z,94653.06
2022-12-24T13:54:54.467Z,94657.81
2022-12-24T13:58:02.140Z,94653.72
2022-12-24T14:00:43.917Z,94655.34
2022-12-24T14:03:13.490Z,94656.97
2022-12-24T14:05:50.221Z,94641.06
2022-12-24T14:08:35.851Z,94638.28
2022-12-24T14:11:16.232Z,94649.75
2022-12-24T14:13:42.869Z,94657.47
2022-12-24T14:16:28.929Z,94652.88
2022-12-24T14:19:11.810Z,94635.00
2022-12-24T14:21:49.433Z,94636.31
2022-12-24T14:24:20.919Z,94647.63
2022-12-24T14:26:55.692Z,94651.56
2022-12-24T14:29:33.812Z,94661.25
2022-12-24T14:32:04.513Z,94657.63
2022-12-24T14:34:32.084Z,94653.66
2022-12-24T14:37:01.664Z,94656.28
2022-12-24T14:39:43.742Z,94653.00
2022-12-24T14:42:59.265Z,94668.09
2022-12-24T14:45:37.957Z,94672.97
2022-12-24T14:48:17.894Z,94675.28
2022-12-24T14:51:13.839Z,94674.94
2022-12-24T14:54:01.912Z,94673.28
2022-12-24T14:56:28.693Z,94669.47
2022-12-24T14:58:55.514Z,94677.69
2022-12-24T15:01:31.444Z,94682.75
2022-12-24T15:04:06.107Z,94691.66
2022-12-24T15:06:37.353Z,94684.41
2022-12-24T15:09:05.225Z,94681.75
2022-12-24T15:11:32.509Z,94677.16
2022-12-24T15:14:00.814Z,94687.59
2022-12-24T15:16:33.660Z,94688.63
2022-12-24T15:19:05.630Z,94700.13
2022-12-24T15:21:37.806Z,94680.03
2022-12-24T15:24:05.087Z,94678.38
2022-12-24T15:26:37.625Z,94684.44
2022-12-24T15:29:23.115Z,94702.63
2022-12-24T15:31:59.360Z,94700.06
2022-12-24T15:34:36.294Z,94700.53
2022-12-24T15:37:10.530Z,94698.06
2022-12-24T15:39:39.579Z,94692.50
2022-12-24T15:42:14.469Z,94690.19
2022-12-24T15:44:55.620Z,94680.28
2022-12-24T15:47:52.319Z,94704.41
2022-12-24T15:50:35.745Z,94693.25
2022-12-24T15:53:20.787Z,94707.31
2022-12-24T15:56:09.225Z,94716.03
2022-12-24T15:58:39.947Z,94704.47
2022-12-24T16:01:12.188Z,94724.44
2022-12-24T16:03:55.064Z,94713.19
2022-12-24T16:06:22.757Z,94728.56
2022-12-24T16:08:51.258Z,94731.00
2022-12-24T16:11:19.712Z,94730.00
2022-12-24T16:13:49.388Z,94723.75
2022-12-24T16:16:19.285Z,94715.91
2022-12-24T16:18:56.717Z,94713.66
2022-12-24T16:21:39.575Z,94714.28
2022-12-24T16:24:28.695Z,94732.22
2022-12-24T16:26:56.529Z,94732.75
2022-12-24T16:29:27.437Z,94730.59
2022-12-24T16:31:59.328Z,94737.16
2022-12-24T16:34:29.628Z,94726.44
2022-12-24T16:36:57.443Z,94734.16
2022-12-24T16:39:30.902Z,94729.44
2022-12-24T16:42:19.278Z,94721.34
2022-12-24T16:44:47.000Z,94729.88
2022-12-24T16:47:13.705Z,94741.69
2022-12-24T16:49:40.647Z,94727.53
2022-12-24T16:52:15.807Z,94743.97
2022-12-24T16:54:42.580Z,94742.19
2022-12-24T16:57:10.584Z,94748.56
2022-12-24T16:59:37.631Z,94740.03
2022-12-24T17:02:10.818Z,94741.25
2022-12-24T17:04:40.913Z,94735.34
2022-12-24T17:07:08.382Z,94734.34
2022-12-24T17:09:35.145Z,94747.53
2022-12-24T17:12:01.913Z,94734.81
2022-12-24T17:14:28.663Z,94744.97
2022-12-24T17:16:55.411Z,94749.69
2022-12-24T17:19:22.123Z,94745.19
2022-12-24T17:21:48.889Z,94744.75
2022-12-24T17:24:18.257Z,94739.00
2022-12-24T17:26:45.193Z,94721.84
2022-12-24T17:29:12.006Z,94740.63
2022-12-24T17:31:40.012Z,94742.59
2022-12-24T17:34:07.194Z,94728.97
2022-12-24T17:36:34.573Z,94749.25
2022-12-24T17:39:01.345Z,94747.16
2022-12-24T17:41:29.571Z,94750.72
2022-12-24T17:43:56.313Z,94752.53
2022-12-24T17:46:23.798Z,94751.72
2022-12-24T17:48:51.717Z,94759.25
2022-12-24T17:51:22.347Z,94755.63
2022-12-24T17:53:50.280Z,94759.59
2022-12-24T17:56:17.921Z,94766.84
2022-12-24T17:58:47.864Z,94766.31
2022-12-24T18:01:21.517Z,94774.03
2022-12-24T18:03:51.067Z,94778.22
2022-12-24T18:06:19.616Z,94788.09
2022-12-24T18:08:47.984Z,94781.50
2022-12-24T18:11:25.600Z,94800.91
2022-12-24T18:13:55.848Z,94795.00
2022-12-24T18:16:33.226Z,94775.59
2022-12-24T18:19:00.962Z,94797.75
2022-12-24T18:21:31.244Z,94773.56
2022-12-24T18:23:59.802Z,94803.31
2022-12-24T18:26:30.098Z,94795.59
2022-12-24T18:28:59.130Z,94785.31
2022-12-24T18:31:27.033Z,94790.03
2022-12-24T18:33:56.007Z,94787.06
2022-12-24T18:36:23.685Z,94774.44
2022-12-24T18:38:51.346Z,94780.47
2022-12-24T18:41:27.563Z,94788.69
2022-12-24T18:43:55.734Z,94778.06
2022-12-24T18:46:26.357Z,94779.13
2022-12-24T18:48:54.780Z,94786.16
2022-12-24T18:51:24.351Z,94787.34
2022-12-24T18:53:51.522Z,94778.28
2022-12-24T18:56:23.364Z,94777.47
2022-12-24T18:58:54.753Z,94777.47
2022-12-24T19:01:25.931Z,94779.13
2022-12-24T19:03:52.988Z,94763.34
2022-12-24T19:06:21.327Z,94774.50
2022-12-24T19:08:59.139Z,94764.97
2022-12-24T19:11:29.156Z,94782.72
2022-12-24T19:13:58.097Z,94770.34
2022-12-24T19:16:25.470Z,94777.63
2022-12-24T19:18:52.304Z,94769.25
2022-12-24T19:21:19.478Z,94786.59
2022-12-24T19:23:47.653Z,94781.69
2022-12-24T19:26:16.749Z,94776.44
2022-12-24T19:28:44.346Z,94792.22
2022-12-24T19:31:24.006Z,94778.06
2022-12-24T19:33:56.934Z,94800.16
2022-12-24T19:36:27.805Z,94797.91
2022-12-24T19:38:56.749Z,94788.56
2022-12-24T19:41:27.688Z,94792.66
2022-12-24T19:43:57.528Z,94794.78
2022-12-24T19:46:32.625Z,94783.25
2022-12-24T19:49:05.216Z,94775.38
2022-12-24T19:51:33.755Z,94783.63
2022-12-24T19:54:01.502Z,94789.81
2022-12-24T19:56:32.421Z,94801.97
2022-12-24T19:59:00.228Z,94802.63
2022-12-24T20:01:30.901Z,94799.34
2022-12-24T20:03:58.569Z,94796.47
2022-12-24T20:06:32.111Z,94798.66
2022-12-24T20:09:05.154Z,94797.00
2022-12-24T20:11:32.557Z,94808.97
2022-12-24T20:14:02.401Z,94811.44
2022-12-24T20:16:29.919Z,94800.50
2022-12-24T20:19:00.818Z,94809.16
2022-12-24T20:21:28.300Z,94803.91
2022-12-24T20:23:55.400Z,94790.94
2022-12-24T20:26:27.533Z,94811.50
2022-12-24T20:28:54.567Z,94815.13
2022-12-24T20:31:26.071Z,94815.47
2022-12-24T20:33:52.996Z,94805.47
2022-12-24T20:36:22.524Z,94818.56
2022-12-24T20:38:49.985Z,94812.63
2022-12-24T20:41:20.549Z,94814.06
2022-12-24T20:43:48.954Z,94821.44
2022-12-24T20:46:18.373Z,94822.91
2022-12-24T20:48:46.118Z,94826.69
2022-12-24T20:51:24.339Z,94819.59
2022-12-24T20:53:54.440Z,94818.38
2022-12-24T20:56:22.012Z,94825.94
2022-12-24T20:58:48.911Z,94831.69
2022-12-24T21:01:24.448Z,94835.00
2022-12-24T21:03:53.779Z,94840.81
2022-12-24T21:06:21.027Z,94835.34
2022-12-24T21:08:52.598Z,94841.78
2022-12-24T21:11:38.647Z,94841.94
2022-12-24T21:14:05.505Z,94838.34
2022-12-24T21:16:34.984Z,94845.25
2022-12-24T21:19:02.612Z,94834.09
2022-12-24T21:21:29.507Z,94837.38
2022-12-24T21:23:56.524Z,94827.19
2022-12-24T21:26:23.914Z,94851.28
2022-12-24T21:28:50.753Z,94849.94
2022-12-24T21:31:17.859Z,94841.69
2022-12-24T21:33:45.418Z,94842.63
2022-12-24T21:36:13.988Z,94822.19
2022-12-24T21:38:41.187Z,94837.56
2022-12-24T21:41:13.783Z,94842.53
2022-12-24T21:43:40.957Z,94843.13
2022-12-24T21:46:12.641Z,94842.53
2022-12-24T21:48:58.452Z,94848.03
2022-12-24T21:51:27.122Z,94837.56
2022-12-24T21:54:13.215Z,94838.69
2022-12-24T21:56:59.371Z,94841.19
2022-12-24T21:59:27.168Z,94814.38
2022-12-24T22:01:55.727Z,94832.34
2022-12-24T22:04:23.259Z,94819.16
2022-12-24T22:07:08.595Z,94816.53
2022-12-24T22:09:54.367Z,94798.25
2022-12-24T22:12:21.092Z,94811.59
2022-12-24T22:14:47.901Z,94792.63
2022-12-24T22:17:18.248Z,94808.47
2022-12-24T22:19:48.085Z,94806.78
2022-12-24T22:22:14.904Z,94817.25
2022-12-24T22:24:41.740Z,94817.03
2022-12-24T22:27:08.634Z,94814.56
2022-12-24T22:29:35.463Z,94814.00
2022-12-24T22:32:02.296Z,94811.56
2022-12-24T22:34:29.125Z,94816.53
2022-12-24T22:36:55.866Z,94812.41
2022-12-24T22:39:22.589Z,94806.91
2022-12-24T22:41:53.072Z,94821.09
2022-12-24T22:44:19.870Z,94783.03
2022-12-24T22:46:46.668Z,94789.78
2022-12-24T22:49:13.441Z,94822.09
2022-12-24T22:51:40.228Z,94806.72
2022-12-24T22:54:06.998Z,94811.94
2022-12-24T22:56:40.443Z,94811.94
2022-12-24T22:59:08.132Z,94814.13
2022-12-24T23:01:40.552Z,94810.81
2022-12-24T23:04:08.821Z,94791.47
2022-12-24T23:06:36.361Z,94813.31
2022-12-24T23:09:05.964Z,94805.66
2022-12-24T23:11:33.077Z,94809.91
2022-12-24T23:14:18.540Z,94797.94
2022-12-24T23:16:45.345Z,94794.47
2022-12-24T23:19:12.834Z,94808.94
2022-12-24T23:21:40.045Z,94803.72
2022-12-24T23:24:07.381Z,94782.13
2022-12-24T23:26:34.141Z,94792.44
2022-12-24T23:29:00.904Z,94802.63
2022-12-24T23:31:27.845Z,94790.25
2022-12-24T23:33:54.647Z,94790.13
2022-12-24T23:36:21.895Z,94774.03
2022-12-24T23:38:48.697Z,94773.34
2022-12-24T23:41:17.943Z,94788.72
2022-12-24T23:43:45.062Z,94797.66
2022-12-24T23:46:15.848Z,94785.69
2022-12-24T23:48:42.973Z,94780.91
2022-12-24T23:51:15.615Z,94792.97
2022-12-24T23:53:42.764Z,94776.50
2022-12-24T23:56:11.613Z,94785.13
2022-12-24T23:58:40.610Z,94774.81
